Weather at Collarenebri Airport

Public forecast

Using degrees Celsius for public forecast. Weather courtesy of forecast.io.

Closest aviation weather report (METAR) to Collarenebri Airport

Closest report is Moree Airport, 66.0 nm (122.2 km) E. Retrieved 2021/06/21 08:00 UTC (39 minutes ago):

YMOR 210800Z AUTO 19005KT 9999 // SCT052 SCT065 SCT075 14/08 Q1023

Closest aviation forecast (TAF) to Collarenebri Airport

Forecast is more than 6 hours old.

Closest forecast is Tamworth Airport, 150.3 nm (278.3 km) SE. Retrieved 2021-06-21 00:36 UTC (8 hours ago):

TAF TAF YSTW 202250Z 2100/2118 16007KT CAVOK FM210400 15009KT 9999 SCT035 FM210900 13005KT CAVOK